createdAt,value
2022-12-03T00:01:31.142Z,100250.09
2022-12-03T00:03:03.687Z,100258.84
2022-12-03T00:04:39.097Z,100264.06
2022-12-03T00:06:12.428Z,100257.94
2022-12-03T00:07:45.735Z,100253.56
2022-12-03T00:09:19.779Z,100262.31
2022-12-03T00:10:53.389Z,100266.69
2022-12-03T00:12:25.995Z,100268.44
2022-12-03T00:13:59.472Z,100271.06
2022-12-03T00:15:31.883Z,100265.81
2022-12-03T00:17:05.659Z,100276.28
2022-12-03T00:18:38.870Z,100275.38
2022-12-03T00:20:19.046Z,100283.25
2022-12-03T00:21:52.340Z,100274.53
2022-12-03T00:23:26.076Z,100272.78
2022-12-03T00:24:59.267Z,100274.53
2022-12-03T00:26:33.397Z,100267.53
2022-12-03T00:28:06.669Z,100268.44
2022-12-03T00:29:40.017Z,100274.53
2022-12-03T00:31:14.126Z,100277.16
2022-12-03T00:32:47.628Z,100278.00
2022-12-03T00:34:20.063Z,100278.03
2022-12-03T00:35:57.332Z,100274.53
2022-12-03T00:37:30.554Z,100279.78
2022-12-03T00:39:03.872Z,100274.53
2022-12-03T00:40:37.803Z,100279.78
2022-12-03T00:42:11.224Z,100281.53
2022-12-03T00:43:44.427Z,100287.66
2022-12-03T00:45:18.779Z,100278.03
2022-12-03T00:46:51.183Z,100275.41
2022-12-03T00:48:24.774Z,100265.75
2022-12-03T00:49:59.120Z,100285.88
2022-12-03T00:51:34.382Z,100291.13
2022-12-03T00:53:07.630Z,100292.03
2022-12-03T00:54:41.069Z,100293.78
2022-12-03T00:56:14.337Z,100285.03
2022-12-03T00:57:47.671Z,100298.13
2022-12-03T00:59:21.831Z,100292.00
2022-12-03T01:00:54.136Z,100294.63
2022-12-03T01:02:27.780Z,100304.25
2022-12-03T01:04:00.550Z,100298.13
2022-12-03T01:05:33.791Z,100312.97
2022-12-03T01:07:08.717Z,100305.97
2022-12-03T01:08:40.837Z,100305.09
2022-12-03T01:10:15.086Z,100308.59
2022-12-03T01:11:47.415Z,100304.22
2022-12-03T01:13:20.947Z,100298.97
2022-12-03T01:14:54.353Z,100307.69
2022-12-03T01:16:28.065Z,100305.06
2022-12-03T01:18:01.382Z,100307.69
2022-12-03T01:19:35.446Z,100302.44
2022-12-03T01:21:08.675Z,100305.91
2022-12-03T01:22:43.567Z,100305.06
2022-12-03T01:24:17.348Z,100317.28
2022-12-03T01:25:50.739Z,100301.56
2022-12-03T01:27:23.929Z,100312.94
2022-12-03T01:28:57.437Z,100303.28
2022-12-03T01:30:50.836Z,100309.38
2022-12-03T01:32:23.371Z,100306.72
2022-12-03T01:33:55.541Z,100304.09
2022-12-03T01:35:28.737Z,100297.16
2022-12-03T01:37:00.992Z,100300.66
2022-12-03T01:38:35.720Z,100298.94
2022-12-03T01:40:13.123Z,100311.16
2022-12-03T01:41:46.503Z,100306.78
2022-12-03T01:43:19.942Z,100312.03
2022-12-03T01:44:54.903Z,100314.66
2022-12-03T01:46:37.947Z,100314.69
2022-12-03T01:48:15.677Z,100315.56
2022-12-03T01:49:52.392Z,100316.44
2022-12-03T01:51:24.578Z,100312.09
2022-12-03T01:53:01.396Z,100315.56
2022-12-03T01:54:40.118Z,100316.47
2022-12-03T01:56:15.536Z,100317.34
2022-12-03T01:57:51.627Z,100313.81
2022-12-03T01:59:33.123Z,100314.75
2022-12-03T02:01:13.243Z,100314.72
2022-12-03T02:02:48.614Z,100318.25
2022-12-03T02:04:24.261Z,100314.72
2022-12-03T02:05:58.365Z,100317.38
2022-12-03T02:07:34.043Z,100312.13
2022-12-03T02:09:09.118Z,100309.50
2022-12-03T02:10:43.881Z,100314.75
2022-12-03T02:12:22.511Z,100321.75
2022-12-03T02:13:59.839Z,100315.63
2022-12-03T02:15:33.530Z,100316.50
2022-12-03T02:17:06.678Z,100320.81
2022-12-03T02:18:40.157Z,100314.72
2022-12-03T02:20:15.532Z,100320.81
2022-12-03T02:21:57.115Z,100321.72
2022-12-03T02:23:37.373Z,100316.50
2022-12-03T02:25:17.373Z,100312.97
2022-12-03T02:26:50.798Z,100320.84
2022-12-03T02:28:24.310Z,100324.34
2022-12-03T02:29:58.371Z,100318.22
2022-12-03T02:31:32.483Z,100307.75
2022-12-03T02:33:06.244Z,100314.72
2022-12-03T02:34:42.200Z,100305.97
2022-12-03T02:36:16.019Z,100318.22
2022-12-03T02:37:52.716Z,100309.47
2022-12-03T02:39:25.434Z,100301.59
2022-12-03T02:41:04.932Z,100306.84
2022-12-03T02:42:37.751Z,100303.34
2022-12-03T02:44:11.870Z,100294.63
2022-12-03T02:45:48.934Z,100306.00
2022-12-03T02:47:22.515Z,100312.13
2022-12-03T02:48:56.404Z,100308.63
2022-12-03T02:50:34.064Z,100307.75
2022-12-03T02:52:07.695Z,100306.88
2022-12-03T02:53:44.569Z,100292.91
2022-12-03T02:55:19.007Z,100304.28
2022-12-03T02:56:53.789Z,100314.78
2022-12-03T02:58:28.690Z,100306.03
2022-12-03T03:00:02.264Z,100301.63
2022-12-03T03:01:35.698Z,100302.53
2022-12-03T03:03:10.227Z,100303.38
2022-12-03T03:04:43.598Z,100309.53
2022-12-03T03:06:19.393Z,100292.06
2022-12-03T03:07:52.974Z,100306.03
2022-12-03T03:09:26.220Z,100307.78
2022-12-03T03:11:01.523Z,100313.91
2022-12-03T03:12:39.462Z,100307.78
2022-12-03T03:14:13.095Z,100313.00
2022-12-03T03:15:48.048Z,100313.91
2022-12-03T03:17:24.674Z,100318.25
2022-12-03T03:19:00.739Z,100318.25
2022-12-03T03:20:34.135Z,100309.53
2022-12-03T03:22:07.584Z,100318.28
2022-12-03T03:23:40.939Z,100313.03
2022-12-03T03:25:18.469Z,100316.50
2022-12-03T03:26:52.205Z,100321.75
2022-12-03T03:28:28.858Z,100314.75
2022-12-03T03:30:02.839Z,100318.22
2022-12-03T03:31:36.521Z,100319.09
2022-12-03T03:33:11.090Z,100318.22
2022-12-03T03:34:45.252Z,100324.34
2022-12-03T03:36:19.322Z,100327.81
2022-12-03T03:37:51.767Z,100326.97
2022-12-03T03:39:25.340Z,100330.44
2022-12-03T03:41:01.553Z,100331.31
2022-12-03T03:42:35.921Z,100327.84
2022-12-03T03:44:11.572Z,100340.06
2022-12-03T03:45:45.820Z,100335.69
2022-12-03T03:47:20.996Z,100335.69
2022-12-03T03:48:54.329Z,100343.56
2022-12-03T03:50:29.711Z,100344.44
2022-12-03T03:52:04.409Z,100347.06
2022-12-03T03:53:38.136Z,100348.81
2022-12-03T03:55:12.540Z,100355.81
2022-12-03T03:56:46.168Z,100351.41
2022-12-03T03:58:19.676Z,100347.94
2022-12-03T03:59:54.434Z,100352.31
2022-12-03T04:01:29.794Z,100353.19
2022-12-03T04:03:04.447Z,100339.22
2022-12-03T04:04:38.313Z,100345.34
2022-12-03T04:06:12.993Z,100358.47
2022-12-03T04:07:46.752Z,100358.47
2022-12-03T04:09:20.327Z,100347.94
2022-12-03T04:11:11.246Z,100350.56
2022-12-03T04:12:55.721Z,100339.22
2022-12-03T04:14:29.171Z,100341.84
2022-12-03T04:16:02.744Z,100343.56
2022-12-03T04:17:36.104Z,100334.84
2022-12-03T04:19:08.275Z,100332.25
2022-12-03T04:20:41.683Z,100339.22
2022-12-03T04:22:33.691Z,100340.09
2022-12-03T04:24:08.298Z,100321.69
2022-12-03T04:25:58.480Z,100342.69
2022-12-03T04:27:49.150Z,100337.44
2022-12-03T04:29:23.216Z,100348.78
2022-12-03T04:30:55.456Z,100337.44
2022-12-03T04:32:47.520Z,100347.91
2022-12-03T04:34:38.880Z,100347.91
2022-12-03T04:36:12.936Z,100347.94
2022-12-03T04:37:46.172Z,100360.19
2022-12-03T04:39:19.713Z,100351.41
2022-12-03T04:41:03.915Z,100349.69
2022-12-03T04:42:37.365Z,100331.28
2022-12-03T04:44:31.615Z,100340.91
2022-12-03T04:46:05.655Z,100343.53
2022-12-03T04:47:40.429Z,100343.53
2022-12-03T04:49:13.575Z,100336.53
2022-12-03T04:50:46.897Z,100338.28
2022-12-03T04:52:22.211Z,100339.13
2022-12-03T04:53:54.398Z,100344.34
2022-12-03T04:55:27.558Z,100346.13
2022-12-03T04:57:01.932Z,100335.66
2022-12-03T04:58:35.382Z,100323.38
2022-12-03T05:00:09.906Z,100342.59
2022-12-03T05:01:42.148Z,100335.59
2022-12-03T05:03:16.798Z,100333.88
2022-12-03T05:04:50.792Z,100342.59
2022-12-03T05:06:23.225Z,100335.63
2022-12-03T05:07:56.470Z,100337.41
2022-12-03T05:09:29.952Z,100333.91
2022-12-03T05:11:03.969Z,100346.13
2022-12-03T05:12:37.408Z,100360.09
2022-12-03T05:14:11.602Z,100353.13
2022-12-03T05:15:45.012Z,100353.13
2022-12-03T05:17:18.714Z,100359.25
2022-12-03T05:18:52.289Z,100353.13
2022-12-03T05:20:47.125Z,100353.13
2022-12-03T05:22:23.278Z,100360.13
2022-12-03T05:23:56.832Z,100365.38
2022-12-03T05:25:29.321Z,100339.13
2022-12-03T05:27:02.855Z,100360.13
2022-12-03T05:28:36.273Z,100367.09
2022-12-03T05:30:10.994Z,100361.88
2022-12-03T05:31:44.420Z,100370.59
2022-12-03T05:33:16.642Z,100376.69
2022-12-03T05:34:51.616Z,100353.13
2022-12-03T05:36:25.690Z,100388.97
2022-12-03T05:37:58.898Z,100386.31
2022-12-03T05:39:31.116Z,100382.81
2022-12-03T05:41:24.549Z,100390.69
2022-12-03T05:43:01.752Z,100383.72
2022-12-03T05:44:33.952Z,100377.59
2022-12-03T05:46:07.709Z,100379.31
2022-12-03T05:47:40.040Z,100391.56
2022-12-03T05:49:13.449Z,100382.81
2022-12-03T05:50:48.241Z,100386.31
2022-12-03T05:52:20.491Z,100384.56
2022-12-03T05:53:53.865Z,100381.94
2022-12-03T05:55:26.528Z,100371.47
2022-12-03T05:56:59.829Z,100367.94
2022-12-03T05:58:33.269Z,100363.56
2022-12-03T06:00:08.825Z,100360.91
2022-12-03T06:01:45.609Z,100363.53
2022-12-03T06:03:19.067Z,100333.75
2022-12-03T06:04:51.926Z,100375.75
2022-12-03T06:06:27.907Z,100376.63
2022-12-03T06:08:00.364Z,100373.13
2022-12-03T06:09:34.555Z,100378.41
2022-12-03T06:11:07.839Z,100377.50
2022-12-03T06:12:41.514Z,100392.31
2022-12-03T06:14:14.082Z,100389.72
2022-12-03T06:15:47.360Z,100389.72
2022-12-03T06:17:20.883Z,100389.72
2022-12-03T06:18:54.658Z,100387.09
2022-12-03T06:20:30.351Z,100383.63
2022-12-03T06:22:04.586Z,100389.75
2022-12-03T06:23:44.517Z,100388.03
2022-12-03T06:25:18.369Z,100391.56
2022-12-03T06:26:51.575Z,100382.81
2022-12-03T06:28:25.007Z,100397.66
2022-12-03T06:29:58.321Z,100400.28
2022-12-03T06:31:31.541Z,100407.28
2022-12-03T06:33:05.736Z,100398.53
2022-12-03T06:34:39.680Z,100401.13
2022-12-03T06:36:12.970Z,100400.25
2022-12-03T06:37:47.582Z,100400.28
2022-12-03T06:39:20.907Z,100401.16
2022-12-03T06:40:54.153Z,100400.28
2022-12-03T06:42:28.059Z,100389.81
2022-12-03T06:44:01.457Z,100403.75
2022-12-03T06:45:34.681Z,100386.25
2022-12-03T06:47:07.964Z,100419.47
2022-12-03T06:48:41.546Z,100405.53
2022-12-03T06:50:15.235Z,100409.91
2022-12-03T06:51:47.772Z,100396.88
2022-12-03T06:53:22.452Z,100417.81
2022-12-03T06:54:56.385Z,100405.59
2022-12-03T06:56:35.875Z,100406.47
2022-12-03T06:58:11.298Z,100406.44
2022-12-03T06:59:44.906Z,100412.56
2022-12-03T07:01:18.215Z,100407.31
2022-12-03T07:02:51.544Z,100400.34
2022-12-03T07:04:24.823Z,100407.38
2022-12-03T07:05:58.048Z,100409.97
2022-12-03T07:07:31.974Z,100409.13
2022-12-03T07:09:06.599Z,100419.59
2022-12-03T07:10:39.920Z,100408.28
2022-12-03T07:12:13.316Z,100410.88
2022-12-03T07:13:45.520Z,100417.88
2022-12-03T07:15:19.334Z,100412.66
2022-12-03T07:16:52.712Z,100407.41
2022-12-03T07:18:25.067Z,100410.88
2022-12-03T07:19:58.379Z,100405.63
2022-12-03T07:21:31.891Z,100412.63
2022-12-03T07:23:05.189Z,100417.00
2022-12-03T07:24:39.939Z,100401.25
2022-12-03T07:26:13.449Z,100408.28
2022-12-03T07:27:47.012Z,100403.88
2022-12-03T07:29:20.295Z,100405.63
2022-12-03T07:30:53.567Z,100408.25
2022-12-03T07:32:27.081Z,100412.59
2022-12-03T07:34:00.574Z,100412.59
2022-12-03T07:35:34.034Z,100412.59
2022-12-03T07:37:07.767Z,100371.44
2022-12-03T07:38:41.399Z,100414.38
2022-12-03T07:40:16.397Z,100410.00
2022-12-03T07:41:52.393Z,100410.03
2022-12-03T07:43:24.611Z,100407.41
2022-12-03T07:44:57.963Z,100403.88
2022-12-03T07:46:31.299Z,100401.25
2022-12-03T07:48:04.870Z,100403.00
2022-12-03T07:49:38.194Z,100407.41
2022-12-03T07:51:15.224Z,100404.78
2022-12-03T07:52:48.807Z,100407.41
2022-12-03T07:54:22.482Z,100412.66
2022-12-03T07:55:57.367Z,100407.44
2022-12-03T07:57:30.995Z,100403.94
2022-12-03T07:59:04.167Z,100409.19
2022-12-03T08:00:37.321Z,100410.94
2022-12-03T08:02:10.743Z,100410.94
2022-12-03T08:03:44.149Z,100405.66
2022-12-03T08:05:17.719Z,100403.94
2022-12-03T08:06:51.563Z,100410.06
2022-12-03T08:08:24.915Z,100404.78
2022-12-03T08:09:57.363Z,100402.16
2022-12-03T08:11:33.674Z,100413.53
2022-12-03T08:13:12.343Z,100407.41
2022-12-03T08:14:45.738Z,100415.28
2022-12-03T08:16:21.093Z,100417.91
2022-12-03T08:17:56.528Z,100425.75
2022-12-03T08:19:29.644Z,100421.38
2022-12-03T08:21:03.405Z,100413.50
2022-12-03T08:22:36.915Z,100412.59
2022-12-03T08:24:16.144Z,100413.47
2022-12-03T08:25:51.391Z,100416.09
2022-12-03T08:27:26.116Z,100416.97
2022-12-03T08:29:00.578Z,100409.13
2022-12-03T08:30:33.821Z,100409.13
2022-12-03T08:32:11.948Z,100418.72
2022-12-03T08:33:45.438Z,100416.97
2022-12-03T08:35:28.467Z,100412.63
2022-12-03T08:37:07.517Z,100426.59
2022-12-03T08:38:40.899Z,100420.50
2022-12-03T08:40:24.283Z,100417.88
2022-12-03T08:42:18.781Z,100411.75
2022-12-03T08:43:53.558Z,100411.75
2022-12-03T08:45:41.393Z,100414.38
2022-12-03T08:47:21.246Z,100415.25
2022-12-03T08:49:00.777Z,100412.63
2022-12-03T08:50:39.566Z,100396.00
2022-12-03T08:52:17.253Z,100422.28
2022-12-03T08:53:58.132Z,100419.66
2022-12-03T08:55:38.260Z,100400.41
2022-12-03T08:57:26.099Z,100417.91
2022-12-03T08:59:10.405Z,100415.34
2022-12-03T09:00:44.580Z,100412.72
2022-12-03T09:02:28.487Z,100417.09
2022-12-03T09:04:21.489Z,100411.00
2022-12-03T09:05:55.146Z,100405.75
2022-12-03T09:07:28.668Z,100414.50
2022-12-03T09:09:06.542Z,100404.00
2022-12-03T09:10:40.175Z,100404.00
2022-12-03T09:12:13.663Z,100408.41
2022-12-03T09:13:48.165Z,100396.16
2022-12-03T09:15:22.897Z,100402.28
2022-12-03T09:16:57.734Z,100404.91
2022-12-03T09:18:31.295Z,100391.75
2022-12-03T09:20:08.647Z,100402.28
2022-12-03T09:21:41.930Z,100394.41
2022-12-03T09:23:15.336Z,100397.03
2022-12-03T09:24:51.918Z,100402.28
2022-12-03T09:26:25.439Z,100407.53
2022-12-03T09:27:59.108Z,100398.75
2022-12-03T09:29:32.768Z,100405.81
2022-12-03T09:31:07.538Z,100389.16
2022-12-03T09:32:43.157Z,100407.56
2022-12-03T09:34:16.399Z,100404.06
2022-12-03T09:35:49.898Z,100402.31
2022-12-03T09:37:23.487Z,100400.56
2022-12-03T09:38:57.025Z,100403.22
2022-12-03T09:40:30.585Z,100389.19
2022-12-03T09:42:05.056Z,100405.81
2022-12-03T09:45:31.993Z,100395.31
2022-12-03T09:47:07.989Z,100393.56
2022-12-03T09:48:41.637Z,100388.31
2022-12-03T09:50:16.297Z,100373.44
2022-12-03T09:51:49.852Z,100390.94
2022-12-03T09:53:28.156Z,100393.56
2022-12-03T09:55:04.877Z,100387.44
2022-12-03T09:56:39.373Z,100383.06
2022-12-03T09:58:14.727Z,100386.56
2022-12-03T09:59:48.963Z,100379.59
2022-12-03T10:01:22.269Z,100384.84
2022-12-03T10:03:00.266Z,100383.94
2022-12-03T10:04:33.915Z,100383.09
2022-12-03T10:06:08.270Z,100385.72
2022-12-03T10:07:42.758Z,100382.19
2022-12-03T10:09:20.955Z,100381.31
2022-12-03T10:10:57.594Z,100377.81
2022-12-03T10:12:31.492Z,100381.31
2022-12-03T10:14:05.204Z,100370.81
2022-12-03T10:15:38.546Z,100355.06
2022-12-03T10:17:13.199Z,100374.31
2022-12-03T10:18:51.371Z,100365.56
2022-12-03T10:20:27.001Z,100374.28
2022-12-03T10:22:00.602Z,100374.31
2022-12-03T10:23:33.903Z,100366.44
2022-12-03T10:25:10.324Z,100376.06
2022-12-03T10:26:44.640Z,100374.31
2022-12-03T10:28:29.262Z,100370.81
2022-12-03T10:30:04.683Z,100370.81
2022-12-03T10:31:38.643Z,100375.22
2022-12-03T10:33:18.819Z,100377.84
2022-12-03T10:35:09.323Z,100393.59
2022-12-03T10:36:43.394Z,100376.06
2022-12-03T10:38:22.339Z,100365.59
2022-12-03T10:39:58.304Z,100376.94
2022-12-03T10:41:31.560Z,100381.34
2022-12-03T10:43:15.861Z,100379.59
2022-12-03T10:44:49.175Z,100375.19
2022-12-03T10:46:23.359Z,100379.56
2022-12-03T10:48:15.741Z,100374.31
2022-12-03T10:50:05.621Z,100377.81
2022-12-03T10:51:40.529Z,100369.06
2022-12-03T10:53:14.766Z,100370.81
2022-12-03T10:54:48.603Z,100369.06
2022-12-03T10:56:27.037Z,100373.44
2022-12-03T10:58:02.423Z,100369.06
2022-12-03T10:59:44.008Z,100373.44
2022-12-03T11:01:19.124Z,100369.06
2022-12-03T11:02:56.770Z,100368.19
2022-12-03T11:04:34.766Z,100376.03
2022-12-03T11:06:16.070Z,100371.69
2022-12-03T11:07:50.182Z,100365.56
2022-12-03T11:09:28.064Z,100367.31
2022-12-03T11:11:03.367Z,100370.78
2022-12-03T11:12:37.038Z,100370.81
2022-12-03T11:14:14.740Z,100376.94
2022-12-03T11:15:51.675Z,100371.69
2022-12-03T11:17:49.225Z,100369.06
2022-12-03T11:19:44.959Z,100365.59
2022-12-03T11:21:19.898Z,100372.56
2022-12-03T11:22:54.261Z,100366.47
2022-12-03T11:24:27.557Z,100369.09
2022-12-03T11:26:01.343Z,100371.69
2022-12-03T11:27:36.289Z,100366.44
2022-12-03T11:29:15.537Z,100369.06
2022-12-03T11:31:01.467Z,100369.06
2022-12-03T11:33:04.556Z,100373.44
2022-12-03T11:34:42.396Z,100373.47
2022-12-03T11:36:36.538Z,100379.56
2022-12-03T11:38:52.998Z,100374.28
2022-12-03T11:40:33.571Z,100377.78
2022-12-03T11:42:38.256Z,100376.94
2022-12-03T11:44:30.652Z,100366.44
2022-12-03T11:46:11.056Z,100371.66
2022-12-03T11:47:46.729Z,100376.06
2022-12-03T11:49:29.888Z,100371.69
2022-12-03T11:51:03.336Z,100374.34
2022-12-03T11:52:46.465Z,100376.06
2022-12-03T11:54:23.160Z,100356.78
2022-12-03T11:56:09.170Z,100356.81
2022-12-03T11:57:43.632Z,100377.81
2022-12-03T11:59:20.221Z,100378.69
2022-12-03T12:00:56.006Z,100356.84
2022-12-03T12:02:32.075Z,100377.81
2022-12-03T12:04:06.112Z,100379.56
2022-12-03T12:05:43.052Z,100379.59
2022-12-03T12:07:37.459Z,100376.06
2022-12-03T12:09:12.568Z,100379.56
2022-12-03T12:10:50.362Z,100380.47
2022-12-03T12:12:31.051Z,100379.53
2022-12-03T12:14:06.154Z,100370.81
2022-12-03T12:15:45.399Z,100368.16
2022-12-03T12:17:37.201Z,100384.81
2022-12-03T12:19:54.023Z,100383.03
2022-12-03T12:21:41.516Z,100392.69
2022-12-03T12:23:30.194Z,100383.06
2022-12-03T12:25:23.017Z,100389.16
2022-12-03T12:26:57.072Z,100385.66
2022-12-03T12:28:30.682Z,100379.53
2022-12-03T12:30:08.472Z,100355.03
2022-12-03T12:31:42.048Z,100386.56
2022-12-03T12:33:24.304Z,100385.72
2022-12-03T12:35:03.276Z,100391.81
2022-12-03T12:36:36.619Z,100376.06
2022-12-03T12:38:17.710Z,100379.56
2022-12-03T12:39:55.686Z,100377.84
2022-12-03T12:41:30.800Z,100374.31
2022-12-03T12:43:14.209Z,100380.44
2022-12-03T12:45:02.805Z,100376.06
2022-12-03T12:46:53.464Z,100381.31
2022-12-03T12:48:31.156Z,100383.06
2022-12-03T12:50:10.613Z,100381.34
2022-12-03T12:51:47.008Z,100383.06
2022-12-03T12:53:24.934Z,100376.06
2022-12-03T12:55:03.061Z,100379.56
2022-12-03T12:56:42.372Z,100380.44
2022-12-03T12:58:19.865Z,100386.59
2022-12-03T12:59:55.064Z,100384.81
2022-12-03T13:01:31.085Z,100372.56
2022-12-03T13:03:06.196Z,100371.69
2022-12-03T13:04:42.648Z,100379.56
2022-12-03T13:06:17.579Z,100374.31
2022-12-03T13:07:53.768Z,100381.34
2022-12-03T13:09:28.574Z,100373.44
2022-12-03T13:11:03.777Z,100375.19
2022-12-03T13:12:39.941Z,100382.19
2022-12-03T13:14:19.636Z,100369.06
2022-12-03T13:15:58.862Z,100371.69
2022-12-03T13:17:32.537Z,100376.06
2022-12-03T13:19:21.462Z,100382.19
2022-12-03T13:20:55.269Z,100383.06
2022-12-03T13:22:29.559Z,100384.81
2022-12-03T13:24:03.470Z,100370.81
2022-12-03T13:26:00.287Z,100393.56
2022-12-03T13:27:32.791Z,100383.06
2022-12-03T13:29:15.318Z,100389.19
2022-12-03T13:30:49.456Z,100380.47
2022-12-03T13:32:29.265Z,100386.56
2022-12-03T13:34:03.414Z,100382.19
2022-12-03T13:35:39.594Z,100365.56
2022-12-03T13:37:15.478Z,100384.81
2022-12-03T13:38:49.301Z,100382.22
2022-12-03T13:40:28.419Z,100397.94
2022-12-03T13:42:33.866Z,100393.56
2022-12-03T13:44:23.262Z,100376.91
2022-12-03T13:45:56.732Z,100397.09
2022-12-03T13:47:30.222Z,100387.44
2022-12-03T13:49:03.680Z,100388.28
2022-12-03T13:50:38.681Z,100397.03
2022-12-03T13:52:17.355Z,100395.28
2022-12-03T13:53:50.693Z,100401.41
2022-12-03T13:55:27.126Z,100394.41
2022-12-03T13:57:02.732Z,100397.03
2022-12-03T13:58:36.219Z,100392.66
2022-12-03T14:00:14.593Z,100392.69
2022-12-03T14:01:47.791Z,100397.91
2022-12-03T14:03:21.260Z,100383.03
2022-12-03T14:05:00.006Z,100397.03
2022-12-03T14:06:34.410Z,100390.06
2022-12-03T14:08:07.741Z,100392.66
2022-12-03T14:09:46.115Z,100397.91
2022-12-03T14:11:33.859Z,100400.50
2022-12-03T14:13:07.094Z,100396.16
2022-12-03T14:14:40.317Z,100397.03
2022-12-03T14:16:18.594Z,100391.78
2022-12-03T14:17:52.995Z,100390.00
2022-12-03T14:19:26.233Z,100397.88
2022-12-03T14:20:59.431Z,100404.00
2022-12-03T14:22:32.790Z,100401.38
2022-12-03T14:24:07.384Z,100401.38
2022-12-03T14:25:41.544Z,100398.75
2022-12-03T14:27:16.290Z,100397.00
2022-12-03T14:28:49.596Z,100405.78
2022-12-03T14:30:23.125Z,100404.88
2022-12-03T14:31:57.939Z,100403.16
2022-12-03T14:33:31.173Z,100382.13
2022-12-03T14:35:09.706Z,100404.88
2022-12-03T14:36:44.383Z,100405.78
2022-12-03T14:38:17.668Z,100404.91
2022-12-03T14:39:53.591Z,100402.28
2022-12-03T14:41:44.594Z,100410.13
2022-12-03T14:43:18.578Z,100402.25
2022-12-03T14:44:53.383Z,100388.25
2022-12-03T14:46:27.397Z,100405.78
2022-12-03T14:48:02.111Z,100409.28
2022-12-03T14:49:36.024Z,100407.50
2022-12-03T14:51:09.190Z,100399.63
2022-12-03T14:52:43.772Z,100405.78
2022-12-03T14:54:17.108Z,100406.63
2022-12-03T14:55:51.010Z,100408.38
2022-12-03T14:57:24.443Z,100403.16
2022-12-03T14:58:57.710Z,100412.75
2022-12-03T15:00:31.029Z,100413.63
2022-12-03T15:02:04.681Z,100411.00
2022-12-03T15:03:39.336Z,100409.25
2022-12-03T15:05:12.562Z,100409.25
2022-12-03T15:06:46.390Z,100416.25
2022-12-03T15:08:19.777Z,100416.25
2022-12-03T15:09:53.503Z,100418.00
2022-12-03T15:11:27.132Z,100414.50
2022-12-03T15:13:00.359Z,100417.09
2022-12-03T15:14:33.842Z,100417.13
2022-12-03T15:16:07.692Z,100420.59
2022-12-03T15:17:41.855Z,100422.38
2022-12-03T15:19:16.457Z,100412.75
2022-12-03T15:20:50.514Z,100411.84
2022-12-03T15:22:23.785Z,100417.97
2022-12-03T15:23:57.087Z,100416.22
2022-12-03T15:25:30.347Z,100426.72
2022-12-03T15:27:09.852Z,100422.34
2022-12-03T15:28:48.090Z,100422.34
2022-12-03T15:30:21.965Z,100420.59
2022-12-03T15:31:56.222Z,100425.00
2022-12-03T15:33:32.190Z,100424.13
2022-12-03T15:35:10.452Z,100419.72
2022-12-03T15:36:43.838Z,100417.13
2022-12-03T15:38:17.046Z,100418.84
2022-12-03T15:39:50.500Z,100420.63
2022-12-03T15:41:24.582Z,100417.13
2022-12-03T15:42:57.859Z,100425.00
2022-12-03T15:44:31.057Z,100419.75
2022-12-03T15:46:04.619Z,100418.84
2022-12-03T15:47:37.972Z,100426.72
2022-12-03T15:49:11.148Z,100401.34
2022-12-03T15:50:45.930Z,100433.72
2022-12-03T15:52:19.453Z,100430.19
2022-12-03T15:53:53.025Z,100432.81
2022-12-03T15:55:26.322Z,100434.56
2022-12-03T15:57:00.092Z,100427.59
2022-12-03T15:58:33.837Z,100435.44
2022-12-03T16:00:08.399Z,100430.19
2022-12-03T16:01:47.207Z,100442.44
2022-12-03T16:03:21.222Z,100440.72
2022-12-03T16:04:55.326Z,100432.81
2022-12-03T16:06:30.516Z,100449.44
2022-12-03T16:08:03.898Z,100430.19
2022-12-03T16:09:37.196Z,100452.97
2022-12-03T16:11:10.934Z,100456.47
2022-12-03T16:12:44.069Z,100447.72
2022-12-03T16:14:17.427Z,100444.19
2022-12-03T16:15:50.657Z,100449.44
2022-12-03T16:17:24.327Z,100452.94
2022-12-03T16:18:57.771Z,100460.81
2022-12-03T16:20:31.217Z,100458.19
2022-12-03T16:22:05.891Z,100452.97
2022-12-03T16:23:39.237Z,100460.84
2022-12-03T16:25:12.435Z,100455.59
2022-12-03T16:26:47.027Z,100457.31
2022-12-03T16:28:20.269Z,100461.72
2022-12-03T16:29:54.438Z,100456.44
2022-12-03T16:31:28.337Z,100472.19
2022-12-03T16:33:01.527Z,100457.31
2022-12-03T16:34:35.599Z,100459.06
2022-12-03T16:36:10.462Z,100461.66
2022-12-03T16:37:45.019Z,100465.19
2022-12-03T16:39:19.150Z,100458.19
2022-12-03T16:41:09.575Z,100461.66
2022-12-03T16:42:47.242Z,100473.91
2022-12-03T16:44:32.771Z,100466.84
2022-12-03T16:46:26.349Z,100473.81
2022-12-03T16:48:00.299Z,100471.22
2022-12-03T16:49:33.493Z,100471.22
2022-12-03T16:51:06.949Z,100477.31
2022-12-03T16:52:40.172Z,100477.31
2022-12-03T16:54:15.367Z,100479.94
2022-12-03T16:55:48.982Z,100485.19
2022-12-03T16:57:22.698Z,100487.84
2022-12-03T16:58:55.964Z,100489.56
2022-12-03T17:00:29.814Z,100487.84
2022-12-03T17:02:03.563Z,100484.34
2022-12-03T17:03:36.981Z,100497.47
2022-12-03T17:05:10.421Z,100500.97
2022-12-03T17:06:43.994Z,100490.50
2022-12-03T17:08:17.712Z,100493.13
2022-12-03T17:09:53.019Z,100492.25
2022-12-03T17:11:26.746Z,100487.00
2022-12-03T17:13:09.424Z,100486.97
2022-12-03T17:14:43.652Z,100489.66
2022-12-03T17:16:17.061Z,100487.88
2022-12-03T17:17:50.338Z,100497.50
2022-12-03T17:19:23.772Z,100490.53
2022-12-03T17:20:57.099Z,100492.28
2022-12-03T17:22:30.304Z,100490.53
2022-12-03T17:24:03.948Z,100496.66
2022-12-03T17:25:38.864Z,100491.41
2022-12-03T17:27:12.960Z,100500.13
2022-12-03T17:28:47.045Z,100489.66
2022-12-03T17:30:35.368Z,100493.16
2022-12-03T17:32:09.643Z,100502.78
2022-12-03T17:33:42.866Z,100497.53
2022-12-03T17:35:16.178Z,100486.16
2022-12-03T17:36:50.878Z,100501.91
2022-12-03T17:38:37.287Z,100503.66
2022-12-03T17:40:18.278Z,100501.91
2022-12-03T17:41:55.221Z,100509.78
2022-12-03T17:43:33.224Z,100505.41
2022-12-03T17:45:08.242Z,100512.41
2022-12-03T17:46:41.645Z,100508.91
2022-12-03T17:48:15.846Z,100506.28
2022-12-03T17:49:49.182Z,100508.88
2022-12-03T17:51:25.255Z,100523.75
2022-12-03T17:52:58.643Z,100515.00
2022-12-03T17:54:55.263Z,100515.88
2022-12-03T17:56:32.533Z,100506.16
2022-12-03T17:58:07.798Z,100514.06
2022-12-03T17:59:41.302Z,100519.34
2022-12-03T18:01:14.704Z,100517.59
2022-12-03T18:02:49.289Z,100522.81
2022-12-03T18:04:22.514Z,100515.78
2022-12-03T18:05:56.164Z,100514.94
2022-12-03T18:07:29.891Z,100516.72
2022-12-03T18:09:08.034Z,100520.19
2022-12-03T18:10:41.648Z,100517.63
2022-12-03T18:12:15.270Z,100519.34
2022-12-03T18:13:50.044Z,100521.13
2022-12-03T18:15:23.746Z,100508.00
2022-12-03T18:16:57.077Z,100518.50
2022-12-03T18:18:36.090Z,100506.28